»·PEaware :: N53176 KSNA-KLGB

N53176 :: KSNA-KLGB

FLIGHT INFORMATION

Flight Status: Arrived
Operator: Privately registered:
United States
More flights under this callsign
Pilot: Bill F. (18685)
Aircraft: CESSNA 172 SKYHAWK
(C172)
More flights by this aircraft type
Origin: KSNA John Wayne-Orange Co
United States
Destination: KLGB Long Beach
United States
More flights between these airports :: More routes between these airports
Route: +
File this flight plan on PilotEdge
Remarks:
Altitude:
(Current/Filed)
0ft
Speed:
(Current/Filed)
0kts
Departed: 30-Jan-20 06:49 PM
Arrived: 30-Jan-20 07:19 PM
Distance/Time
Traveled:
13nm/0:30
Distance/Time
To Go:
Arrived

Flight Plot

Page will automatically refresh every two minutes.


Map Options




Map Legend


Flown Route
Filed Route
Departure Airport
Arrival Airport
Navaid (VOR, NDB)
Fix

Horizontal Profiles

Position Reports

Time Latitude Longitude Heading Altitude Ground
Speed
30-Jan-20 18:35 33.676721 -117.870558 115 60ft 0kts
30-Jan-20 18:36 33.676721 -117.870558 115 60ft 0kts
30-Jan-20 18:38 33.676694 -117.870489 115 60ft 0kts
30-Jan-20 18:38 33.676679 -117.870452 115 60ft 0kts
30-Jan-20 18:40 33.677537 -117.868684 199 60ft 0kts
30-Jan-20 18:40 33.677537 -117.868684 199 60ft 0kts
30-Jan-20 18:41 33.677537 -117.868684 199 60ft 0kts
30-Jan-20 18:42 33.677537 -117.868684 199 60ft 0kts
30-Jan-20 18:43 33.677537 -117.868684 199 60ft 0kts
30-Jan-20 18:44 33.677537 -117.868684 198 60ft 0kts
30-Jan-20 18:45 33.677471 -117.868875 292 60ft 8kts
30-Jan-20 18:46 33.681196 -117.866434 115 60ft 0kts
30-Jan-20 18:47 33.681164 -117.866353 114 60ft 5kts
30-Jan-20 18:48 33.670611 -117.874071 242 498ft 72kts
30-Jan-20 18:49 33.660934 -117.896187 237 1435ft 73kts
30-Jan-20 18:50 33.652102 -117.918502 237 2273ft 77kts
30-Jan-20 18:51 33.640599 -117.940818 230 2992ft 87kts
30-Jan-20 18:52 33.638752 -117.974065 289 3010ft 113kts
30-Jan-20 18:53 33.650317 -118.010392 289 2963ft 113kts
30-Jan-20 18:54 33.663087 -118.045127 293 2963ft 112kts
30-Jan-20 18:55 33.676262 -118.079483 294 2962ft 113kts
30-Jan-20 18:56 33.690594 -118.113086 297 2961ft 113kts
30-Jan-20 18:57 33.707809 -118.142834 318 2764ft 107kts
30-Jan-20 18:58 33.730651 -118.165100 315 2328ft 104kts
30-Jan-20 18:59 33.750751 -118.189808 301 2044ft 100kts
30-Jan-20 19:00 33.773206 -118.202978 27 2049ft 104kts
30-Jan-20 19:01 33.795770 -118.180312 63 1836ft 110kts
30-Jan-20 19:02 33.802712 -118.147008 88 1072ft 91kts
30-Jan-20 19:03 33.813809 -118.143200 266 237ft 81kts
30-Jan-20 19:04 33.813444 -118.166950 260 538ft 71kts
30-Jan-20 19:05 33.805752 -118.154958 88 1048ft 104kts
30-Jan-20 19:06 33.813636 -118.136354 283 532ft 69kts
30-Jan-20 19:07 33.813865 -118.158806 269 214ft 73kts
30-Jan-20 19:08 33.804312 -118.165559 82 1045ft 89kts
30-Jan-20 19:09 33.805994 -118.133440 88 1024ft 95kts
30-Jan-20 19:10 33.813797 -118.133428 268 352ft 83kts
30-Jan-20 19:11 33.813821 -118.154811 268 113ft 75kts
30-Jan-20 19:12 33.804912 -118.167304 122 1098ft 72kts
30-Jan-20 19:13 33.807684 -118.144601 21 797ft 62kts
30-Jan-20 19:14 33.813723 -118.159855 268 153ft 70kts
30-Jan-20 19:15 33.803881 -118.163803 88 977ft 84kts
30-Jan-20 19:16 33.803587 -118.135542 61 876ft 72kts
30-Jan-20 19:18 33.813827 -118.151511 272 48ft 53kts
30-Jan-20 19:18 33.813264 -118.155710 180 44ft 0kts
30-Jan-20 19:19 33.813085 -118.155567 105 44ft 1kts
30-Jan-20 19:20 33.813091 -118.151347 85 44ft 19kts
30-Jan-20 19:21 33.813312 -118.148074 37 44ft 3kts
30-Jan-20 19:22 33.813334 -118.148058 26 44ft 0kts
30-Jan-20 19:23 33.813334 -118.148058 26 44ft 0kts
30-Jan-20 19:24 33.813659 -118.148129 322 44ft 5kts
30-Jan-20 19:25 33.814015 -118.165815 273 565ft 75kts
30-Jan-20 19:26 33.814726 -118.190931 279 1505ft 77kts
30-Jan-20 19:27 33.797521 -118.204079 172 1957ft 101kts
30-Jan-20 19:28 33.770002 -118.195843 160 2068ft 103kts
30-Jan-20 19:29 33.743365 -118.183933 158 1956ft 102kts
30-Jan-20 19:30 33.718120 -118.168856 120 1507ft 104kts
30-Jan-20 19:31 33.726843 -118.147381 141 1147ft 83kts
30-Jan-20 19:32 33.713383 -118.143671 198 873ft 82kts
30-Jan-20 19:33 33.692691 -118.131069 199 1159ft 84kts

Navigation Log

Ident Type
Flight plan parsing failed, navigation log unavailable